De Forest, Wisconsin
Current Conditions -  °F | °C
As of 6:53 PM on Monday 24 Nov 2014 (Local Time) from KMSN Reporting Station
Light Snow Light Snow  
Wind Chill: 16°   Ceiling: 1900
Heat Index: 24°   Visibility: 1mi
Dew Point: 21°   Wind: 7mph
Humidity: 88%   Direction: NA
Pressure: 29.6"   Gusts: NA
Location:  43.25°N, 89.34°W
Report Text: KMSN 250053Z VRB06KT 1SM R36/P6000FT -SN BR VV019 M04/M06 A2960 RMK AO2 SLP032 SNINCR 1/4 P0003 T10441061
Loading
Personal Weather Stations






























Interactive Weather Map New forecast layout! Learn more

10-Day Weather Forecast

Advertisements
Track Severe Weather on mobile